createdAt,value
2017-03-01T00:00:47.412Z,0
2017-03-01T00:01:57.401Z,0
2017-03-01T00:03:07.371Z,0
2017-03-01T00:04:18.127Z,0
2017-03-01T00:05:28.868Z,0
2017-03-01T00:06:39.915Z,0
2017-03-01T00:07:50.674Z,0
2017-03-01T00:09:01.433Z,0
2017-03-01T00:10:11.797Z,0
2017-03-01T00:11:22.152Z,0
2017-03-01T00:12:32.740Z,0
2017-03-01T00:13:43.074Z,0
2017-03-01T00:14:53.047Z,0
2017-03-01T00:16:03.425Z,0
2017-03-01T00:17:14.159Z,0
2017-03-01T00:18:25.194Z,0
2017-03-01T00:19:35.558Z,0
2017-03-01T00:20:46.302Z,0
2017-03-01T00:21:56.653Z,0
2017-03-01T00:23:06.221Z,0
2017-03-01T00:24:16.897Z,0
2017-03-01T00:25:27.650Z,0
2017-03-01T00:26:38.388Z,0
2017-03-01T00:27:48.725Z,0
2017-03-01T00:28:59.488Z,0
2017-03-01T00:30:09.685Z,0
2017-03-01T00:31:20.417Z,0
2017-03-01T00:32:30.782Z,0
2017-03-01T00:33:41.515Z,0
2017-03-01T00:34:51.661Z,0
2017-03-01T00:36:01.860Z,0
2017-03-01T00:37:12.206Z,0
2017-03-01T00:38:22.993Z,0
2017-03-01T00:39:33.325Z,0
2017-03-01T00:40:44.090Z,0
2017-03-01T00:41:54.749Z,0
2017-03-01T00:43:05.670Z,0
2017-03-01T00:44:16.417Z,0
2017-03-01T00:45:27.462Z,0
2017-03-01T00:46:37.037Z,0
2017-03-01T00:47:47.620Z,0
2017-03-01T00:48:57.596Z,0
2017-03-01T00:50:08.176Z,0
2017-03-01T00:51:18.532Z,0
2017-03-01T00:52:28.889Z,0
2017-03-01T00:53:38.705Z,0
2017-03-01T00:54:49.454Z,0
2017-03-01T00:56:00.197Z,0
2017-03-01T00:57:09.755Z,0
2017-03-01T00:58:20.130Z,0
2017-03-01T00:59:31.167Z,0
2017-03-01T01:00:41.508Z,0
2017-03-01T01:01:52.266Z,0
2017-03-01T01:03:03.035Z,0
2017-03-01T01:04:13.772Z,0
2017-03-01T01:05:23.972Z,0
2017-03-01T01:06:34.731Z,0
2017-03-01T01:07:45.093Z,0
2017-03-01T01:08:55.459Z,0
2017-03-01T01:10:06.190Z,0
2017-03-01T01:11:16.865Z,0
2017-03-01T01:12:27.646Z,0
2017-03-01T01:13:37.550Z,0
2017-03-01T01:14:47.902Z,0
2017-03-01T01:15:58.644Z,0
2017-03-01T01:17:09.294Z,0
2017-03-01T01:18:20.037Z,0
2017-03-01T01:19:30.791Z,0
2017-03-01T01:20:41.128Z,0
2017-03-01T01:21:51.084Z,0
2017-03-01T01:23:00.923Z,0
2017-03-01T01:24:11.687Z,0
2017-03-01T01:25:22.052Z,0
2017-03-01T01:26:32.798Z,0
2017-03-01T01:27:42.786Z,0
2017-03-01T01:28:53.032Z,0
2017-03-01T01:30:03.780Z,0
2017-03-01T01:31:14.151Z,0
2017-03-01T01:32:24.903Z,0
2017-03-01T01:33:35.250Z,0
2017-03-01T01:34:45.435Z,0
2017-03-01T01:35:55.793Z,0
2017-03-01T01:37:06.148Z,0
2017-03-01T01:38:16.487Z,0
2017-03-01T01:39:26.468Z,0
2017-03-01T01:40:35.942Z,0
2017-03-01T01:41:46.702Z,0
2017-03-01T01:42:57.476Z,0
2017-03-01T01:44:07.818Z,0
2017-03-01T01:45:17.764Z,0
2017-03-01T01:46:28.780Z,0
2017-03-01T01:47:39.546Z,0
2017-03-01T01:48:49.886Z,0
2017-03-01T01:49:59.437Z,0
2017-03-01T01:51:09.778Z,0
2017-03-01T01:52:20.771Z,0
2017-03-01T01:53:31.120Z,0
2017-03-01T01:54:41.063Z,0
2017-03-01T01:55:51.400Z,0
2017-03-01T01:57:01.972Z,0
2017-03-01T01:58:13.034Z,0
2017-03-01T01:59:23.772Z,0
2017-03-01T02:00:34.510Z,0
2017-03-01T02:01:44.887Z,0
2017-03-01T02:02:55.631Z,0
2017-03-01T02:04:06.279Z,0
2017-03-01T02:05:17.018Z,0
2017-03-01T02:06:27.000Z,0
2017-03-01T02:07:37.734Z,0
2017-03-01T02:08:48.484Z,0
2017-03-01T02:09:58.746Z,0
2017-03-01T02:11:08.721Z,0
2017-03-01T02:12:18.682Z,0
2017-03-01T02:13:28.630Z,0
2017-03-01T02:14:38.980Z,0
2017-03-01T02:15:49.185Z,0
2017-03-01T02:16:59.524Z,0
2017-03-01T02:18:09.870Z,0
2017-03-01T02:19:20.234Z,0
2017-03-01T02:20:30.976Z,0
2017-03-01T02:21:41.629Z,0
2017-03-01T02:22:52.370Z,0
2017-03-01T02:24:03.123Z,0
2017-03-01T02:25:13.894Z,0
2017-03-01T02:26:24.263Z,0
2017-03-01T02:27:35.332Z,0
2017-03-01T02:28:45.689Z,0
2017-03-01T02:29:56.455Z,0
2017-03-01T02:31:06.816Z,0
2017-03-01T02:32:17.171Z,0
2017-03-01T02:33:27.392Z,0
2017-03-01T02:34:38.125Z,0
2017-03-01T02:35:48.887Z,0
2017-03-01T02:36:59.232Z,0
2017-03-01T02:38:09.594Z,0
2017-03-01T02:39:20.199Z,0
2017-03-01T02:40:30.160Z,0
2017-03-01T02:41:40.531Z,0
2017-03-01T02:42:50.880Z,0
2017-03-01T02:44:01.634Z,0
2017-03-01T02:45:11.907Z,0
2017-03-01T02:46:22.659Z,0
2017-03-01T02:47:33.418Z,0
2017-03-01T02:48:43.779Z,0
2017-03-01T02:49:53.347Z,0
2017-03-01T02:51:03.943Z,0
2017-03-01T02:52:14.692Z,0
2017-03-01T02:53:25.036Z,0
2017-03-01T02:54:35.383Z,0
2017-03-01T02:55:45.341Z,0
2017-03-01T02:56:56.393Z,0
2017-03-01T02:58:06.352Z,0
2017-03-01T02:59:16.714Z,0
2017-03-01T03:00:27.459Z,0
2017-03-01T03:01:37.808Z,0
2017-03-01T03:02:48.423Z,0
2017-03-01T03:03:59.158Z,0
2017-03-01T03:05:09.514Z,0
2017-03-01T03:06:19.472Z,0
2017-03-01T03:07:29.428Z,0
2017-03-01T03:08:40.435Z,0
2017-03-01T03:09:51.178Z,0
2017-03-01T03:11:01.139Z,0
2017-03-01T03:12:11.101Z,0
2017-03-01T03:13:21.857Z,0
2017-03-01T03:14:32.866Z,0
2017-03-01T03:15:42.467Z,0
2017-03-01T03:16:53.215Z,0
2017-03-01T03:18:02.813Z,0
2017-03-01T03:19:12.780Z,0
2017-03-01T03:20:23.427Z,0
2017-03-01T03:21:33.786Z,0
2017-03-01T03:22:44.538Z,0
2017-03-01T03:23:55.309Z,0
2017-03-01T03:25:06.048Z,0
2017-03-01T03:26:17.101Z,0
2017-03-01T03:27:27.462Z,0
2017-03-01T03:28:38.195Z,0
2017-03-01T03:29:48.947Z,0
2017-03-01T03:30:59.303Z,0
2017-03-01T03:32:10.368Z,0
2017-03-01T03:33:20.723Z,0
2017-03-01T03:34:31.073Z,0
2017-03-01T03:35:41.050Z,0
2017-03-01T03:36:51.398Z,0
2017-03-01T03:38:01.675Z,0
2017-03-01T03:39:12.031Z,0
2017-03-01T03:40:22.792Z,0
2017-03-01T03:41:33.536Z,0
2017-03-01T03:42:43.498Z,0
2017-03-01T03:43:54.560Z,0
2017-03-01T03:45:05.328Z,0
2017-03-01T03:46:16.077Z,0
2017-03-01T03:47:26.414Z,0
2017-03-01T03:48:36.774Z,0
2017-03-01T03:49:47.384Z,0
2017-03-01T03:50:58.137Z,0
2017-03-01T03:52:07.722Z,0
2017-03-01T03:53:18.093Z,0
2017-03-01T03:54:28.051Z,0
2017-03-01T03:55:39.087Z,0
2017-03-01T03:56:49.427Z,0
2017-03-01T03:57:59.783Z,0
2017-03-01T03:59:10.137Z,0
2017-03-01T04:00:20.486Z,0
2017-03-01T04:01:31.679Z,0
2017-03-01T04:02:42.436Z,0
2017-03-01T04:03:52.787Z,0
2017-03-01T04:05:03.178Z,0
2017-03-01T04:06:13.564Z,0
2017-03-01T04:07:24.208Z,0
2017-03-01T04:08:34.179Z,0
2017-03-01T04:09:44.938Z,0
2017-03-01T04:10:55.700Z,0
2017-03-01T04:12:06.458Z,0
2017-03-01T04:13:17.503Z,0
2017-03-01T04:14:28.281Z,0
2017-03-01T04:15:38.650Z,0
2017-03-01T04:16:49.002Z,0
2017-03-01T04:17:59.754Z,0
2017-03-01T04:19:11.185Z,0
2017-03-01T04:20:21.536Z,0
2017-03-01T04:21:32.298Z,0
2017-03-01T04:22:42.660Z,0
2017-03-01T04:23:52.237Z,0
2017-03-01T04:25:03.104Z,0
2017-03-01T04:26:13.482Z,0
2017-03-01T04:27:24.223Z,0
2017-03-01T04:28:34.992Z,0
2017-03-01T04:29:45.337Z,0
2017-03-01T04:30:55.210Z,0
2017-03-01T04:32:05.570Z,0
2017-03-01T04:33:15.924Z,0
2017-03-01T04:34:26.691Z,0
2017-03-01T04:35:36.262Z,0
2017-03-01T04:36:46.935Z,0
2017-03-01T04:37:57.686Z,0
2017-03-01T04:39:08.038Z,0
2017-03-01T04:40:18.787Z,0
2017-03-01T04:41:29.125Z,0
2017-03-01T04:42:39.749Z,0
2017-03-01T04:43:50.099Z,0
2017-03-01T04:45:00.867Z,0
2017-03-01T04:46:11.231Z,0
2017-03-01T04:47:22.028Z,0
2017-03-01T04:48:32.279Z,0
2017-03-01T04:49:42.624Z,0
2017-03-01T04:50:53.359Z,0
2017-03-01T04:52:04.140Z,0
2017-03-01T04:53:14.514Z,0
2017-03-01T04:54:24.359Z,0
2017-03-01T04:55:34.709Z,0
2017-03-01T04:56:44.274Z,0
2017-03-01T04:57:55.015Z,0
2017-03-01T04:59:05.397Z,0
2017-03-01T05:00:16.053Z,0
2017-03-01T05:01:26.795Z,0
2017-03-01T05:02:37.158Z,0
2017-03-01T05:03:47.931Z,0
2017-03-01T05:04:58.280Z,0
2017-03-01T05:06:09.311Z,0
2017-03-01T05:07:19.656Z,0
2017-03-01T05:08:30.412Z,0
2017-03-01T05:09:41.154Z,0
2017-03-01T05:10:51.883Z,0
2017-03-01T05:12:02.878Z,0
2017-03-01T05:13:13.622Z,0
2017-03-01T05:14:24.381Z,0
2017-03-01T05:15:35.157Z,0
2017-03-01T05:16:45.507Z,0
2017-03-01T05:17:56.129Z,0
2017-03-01T05:19:06.492Z,0
2017-03-01T05:20:17.253Z,0
2017-03-01T05:21:27.609Z,0
2017-03-01T05:22:37.967Z,0
2017-03-01T05:23:48.560Z,0
2017-03-01T05:24:58.523Z,0
2017-03-01T05:26:08.888Z,0
2017-03-01T05:27:19.633Z,0
2017-03-01T05:28:29.979Z,0
2017-03-01T05:29:40.272Z,0
2017-03-01T05:30:50.613Z,0
2017-03-01T05:32:00.953Z,0
2017-03-01T05:33:11.679Z,0
2017-03-01T05:34:22.498Z,0
2017-03-01T05:35:33.548Z,0
2017-03-01T05:36:43.126Z,0
2017-03-01T05:37:53.477Z,0
2017-03-01T05:39:03.829Z,0
2017-03-01T05:40:14.280Z,0
2017-03-01T05:41:24.949Z,0
2017-03-01T05:42:35.720Z,0
2017-03-01T05:43:46.965Z,0
2017-03-01T05:44:57.313Z,0
2017-03-01T05:46:07.673Z,0
2017-03-01T05:47:18.341Z,0
2017-03-01T05:48:28.693Z,0
2017-03-01T05:49:39.452Z,0
2017-03-01T05:50:49.830Z,0
2017-03-01T05:52:00.575Z,0
2017-03-01T05:53:11.243Z,0
2017-03-01T05:54:21.986Z,0
2017-03-01T05:55:32.750Z,0
2017-03-01T05:56:43.116Z,0
2017-03-01T05:57:53.865Z,5
2017-03-01T05:59:04.492Z,5
2017-03-01T06:00:14.866Z,5
2017-03-01T06:01:25.212Z,5
2017-03-01T06:02:35.164Z,5
2017-03-01T06:03:45.897Z,5
2017-03-01T06:04:56.923Z,10
2017-03-01T06:06:07.692Z,10
2017-03-01T06:07:17.248Z,10
2017-03-01T06:08:27.609Z,10
2017-03-01T06:09:37.951Z,10
2017-03-01T06:10:49.173Z,10
2017-03-01T06:11:59.542Z,15
2017-03-01T06:13:09.896Z,15
2017-03-01T06:14:19.887Z,15
2017-03-01T06:15:30.261Z,15
2017-03-01T06:16:41.336Z,15
2017-03-01T06:17:52.111Z,20
2017-03-01T06:19:02.481Z,20
2017-03-01T06:20:12.850Z,15
2017-03-01T06:21:23.599Z,20
2017-03-01T06:22:34.200Z,20
2017-03-01T06:23:44.556Z,20
2017-03-01T06:24:54.905Z,15
2017-03-01T06:26:04.837Z,15
2017-03-01T06:27:15.215Z,15
2017-03-01T06:28:26.219Z,20
2017-03-01T06:29:36.962Z,20
2017-03-01T06:30:46.563Z,20
2017-03-01T06:31:57.333Z,20
2017-03-01T06:33:07.701Z,20
2017-03-01T06:34:18.325Z,20
2017-03-01T06:35:29.087Z,20
2017-03-01T06:36:39.442Z,20
2017-03-01T06:37:49.813Z,20
2017-03-01T06:39:00.168Z,20
2017-03-01T06:40:10.379Z,20
2017-03-01T06:41:19.955Z,20
2017-03-01T06:42:30.735Z,20
2017-03-01T06:43:40.719Z,20
2017-03-01T06:44:51.471Z,20
2017-03-01T06:46:02.127Z,25
2017-03-01T06:47:12.488Z,25
2017-03-01T06:48:22.844Z,25
2017-03-01T06:49:33.196Z,20
2017-03-01T06:50:43.170Z,20
2017-03-01T06:51:53.762Z,20
2017-03-01T06:53:04.124Z,20
2017-03-01T06:54:14.930Z,20
2017-03-01T06:55:25.689Z,20
2017-03-01T06:56:36.495Z,20
2017-03-01T06:57:47.555Z,20
2017-03-01T06:58:57.522Z,20
2017-03-01T07:00:07.090Z,20
2017-03-01T07:01:17.465Z,20
2017-03-01T07:02:27.871Z,25
2017-03-01T07:03:38.132Z,25
2017-03-01T07:04:48.476Z,25
2017-03-01T07:05:58.454Z,30
2017-03-01T07:07:08.418Z,30
2017-03-01T07:08:18.790Z,30
2017-03-01T07:09:29.788Z,30
2017-03-01T07:10:40.169Z,30
2017-03-01T07:11:50.125Z,30
2017-03-01T07:13:00.489Z,30
2017-03-01T07:14:11.248Z,30
2017-03-01T07:15:21.076Z,30
2017-03-01T07:16:31.827Z,30
2017-03-01T07:17:42.188Z,35
2017-03-01T07:18:52.588Z,35
2017-03-01T07:20:03.342Z,30
2017-03-01T07:21:13.986Z,30
2017-03-01T07:22:24.771Z,35
2017-03-01T07:23:35.135Z,35
2017-03-01T07:24:45.104Z,35
2017-03-01T07:25:55.459Z,35
2017-03-01T07:27:06.131Z,35
2017-03-01T07:28:16.518Z,35
2017-03-01T07:29:27.283Z,40
2017-03-01T07:30:37.644Z,45
2017-03-01T07:31:47.664Z,45
2017-03-01T07:32:58.327Z,55
2017-03-01T07:34:09.095Z,55
2017-03-01T07:35:19.465Z,55
2017-03-01T07:36:30.223Z,55
2017-03-01T07:37:40.580Z,60
2017-03-01T07:38:51.644Z,60
2017-03-01T07:40:02.393Z,60
2017-03-01T07:41:13.143Z,70
2017-03-01T07:42:23.511Z,75
2017-03-01T07:43:33.875Z,80
2017-03-01T07:44:44.460Z,80
2017-03-01T07:45:54.825Z,75
2017-03-01T07:47:05.190Z,80
2017-03-01T07:48:15.207Z,90
2017-03-01T07:49:25.552Z,85
2017-03-01T07:51:28.145Z,60
2017-03-01T07:52:38.504Z,55
2017-03-01T07:53:48.466Z,50
2017-03-01T07:54:58.839Z,60
2017-03-01T07:56:09.626Z,65
2017-03-01T07:57:20.277Z,80
2017-03-01T07:58:30.638Z,85
2017-03-01T07:59:41.006Z,75
2017-03-01T08:00:51.392Z,80
2017-03-01T08:02:01.396Z,65
2017-03-01T08:03:11.235Z,55
2017-03-01T08:04:21.589Z,65
2017-03-01T08:05:31.170Z,60
2017-03-01T08:06:41.945Z,65
2017-03-01T08:07:52.720Z,70
2017-03-01T08:09:03.341Z,75
2017-03-01T08:10:13.316Z,80
2017-03-01T08:11:23.660Z,65
2017-03-01T08:12:34.409Z,65
2017-03-01T08:13:45.204Z,60
2017-03-01T08:14:56.199Z,65
2017-03-01T08:16:06.986Z,65
2017-03-01T08:17:17.761Z,65
2017-03-01T08:18:28.131Z,80
2017-03-01T08:19:38.515Z,75
2017-03-01T08:20:49.161Z,60
2017-03-01T08:21:59.546Z,65
2017-03-01T08:23:09.926Z,70
2017-03-01T08:24:20.705Z,60
2017-03-01T08:25:31.520Z,70
2017-03-01T08:26:41.737Z,60
2017-03-01T08:27:52.124Z,60
2017-03-01T08:29:02.935Z,65
2017-03-01T08:30:13.315Z,60
2017-03-01T08:31:23.700Z,60
2017-03-01T08:32:34.743Z,60
2017-03-01T08:33:45.145Z,60
2017-03-01T08:34:55.517Z,65
2017-03-01T08:36:06.290Z,70
2017-03-01T08:37:17.088Z,70
2017-03-01T08:38:28.375Z,95
2017-03-01T08:39:38.763Z,70
2017-03-01T08:40:49.527Z,75
2017-03-01T08:41:59.520Z,65
2017-03-01T08:43:10.302Z,65
2017-03-01T08:44:21.029Z,85
2017-03-01T08:45:31.798Z,90
2017-03-01T08:46:42.173Z,85
2017-03-01T08:47:52.148Z,90
2017-03-01T08:49:02.107Z,100
2017-03-01T08:50:13.130Z,110
2017-03-01T08:51:23.504Z,90
2017-03-01T08:52:34.269Z,90
2017-03-01T08:53:44.627Z,70
2017-03-01T08:54:55.018Z,65
2017-03-01T08:56:06.080Z,65
2017-03-01T08:57:16.854Z,65
2017-03-01T08:58:27.645Z,65
2017-03-01T08:59:37.625Z,60
2017-03-01T09:00:47.987Z,60
2017-03-01T09:01:58.634Z,65
2017-03-01T09:03:09.019Z,65
2017-03-01T09:04:18.993Z,65
2017-03-01T09:05:29.415Z,65
2017-03-01T09:06:40.173Z,65
2017-03-01T09:07:50.448Z,65
2017-03-01T09:09:00.808Z,65
2017-03-01T09:10:11.595Z,65
2017-03-01T09:11:22.016Z,65
2017-03-01T09:12:32.765Z,65
2017-03-01T09:13:43.816Z,60
2017-03-01T09:14:54.560Z,65
2017-03-01T09:16:05.355Z,65
2017-03-01T09:17:16.129Z,65
2017-03-01T09:18:26.894Z,65
2017-03-01T09:19:37.569Z,65
2017-03-01T09:20:47.951Z,70
2017-03-01T09:21:58.305Z,75
2017-03-01T09:23:09.063Z,80
2017-03-01T09:24:19.105Z,85
2017-03-01T09:25:30.138Z,90
2017-03-01T09:26:40.928Z,90
2017-03-01T09:27:51.306Z,85
2017-03-01T09:29:01.704Z,80
2017-03-01T09:30:12.059Z,80
2017-03-01T09:31:23.118Z,75
2017-03-01T09:32:33.516Z,75
2017-03-01T09:33:43.905Z,75
2017-03-01T09:34:53.910Z,75
2017-03-01T09:36:04.295Z,80
2017-03-01T09:37:14.926Z,80
2017-03-01T09:38:25.314Z,75
2017-03-01T09:39:35.704Z,75
2017-03-01T09:40:46.096Z,75
2017-03-01T09:41:56.469Z,75
2017-03-01T09:43:07.242Z,75
2017-03-01T09:44:18.049Z,85
2017-03-01T09:45:28.481Z,80
2017-03-01T09:46:38.076Z,85
2017-03-01T09:47:48.755Z,105
2017-03-01T09:48:59.513Z,85
2017-03-01T09:50:09.905Z,90
2017-03-01T09:51:20.692Z,90
2017-03-01T09:52:31.075Z,80
2017-03-01T09:53:41.687Z,90
2017-03-01T09:54:52.097Z,85
2017-03-01T09:56:02.909Z,90
2017-03-01T09:57:13.674Z,95
2017-03-01T09:58:24.448Z,95
2017-03-01T09:59:35.511Z,100
2017-03-01T10:00:45.903Z,100
2017-03-01T10:01:56.279Z,100
2017-03-01T10:03:06.266Z,100
2017-03-01T10:04:16.247Z,100
2017-03-01T10:05:26.874Z,95
2017-03-01T10:06:37.631Z,90
2017-03-01T10:07:48.080Z,80
2017-03-01T10:08:58.893Z,80
2017-03-01T10:10:09.683Z,80
2017-03-01T10:11:19.979Z,80
2017-03-01T10:12:30.342Z,85
2017-03-01T10:13:40.757Z,85
2017-03-01T10:14:51.188Z,90
2017-03-01T10:16:01.890Z,95
2017-03-01T10:17:12.587Z,95
2017-03-01T10:18:23.615Z,95
2017-03-01T10:19:34.378Z,85
2017-03-01T10:20:44.787Z,80
2017-03-01T10:21:55.194Z,100
2017-03-01T10:23:05.839Z,100
2017-03-01T10:24:16.228Z,75
2017-03-01T10:25:26.604Z,80
2017-03-01T10:26:36.973Z,90
2017-03-01T10:27:47.745Z,95
2017-03-01T10:28:57.987Z,95
2017-03-01T10:30:08.365Z,120
2017-03-01T10:31:19.143Z,95
2017-03-01T10:32:29.523Z,80
2017-03-01T10:33:39.931Z,85
2017-03-01T10:34:50.531Z,80
2017-03-01T10:36:01.298Z,80
2017-03-01T10:37:11.696Z,90
2017-03-01T10:38:22.054Z,80
2017-03-01T10:39:32.071Z,75
2017-03-01T10:40:42.695Z,75
2017-03-01T10:41:53.056Z,85
2017-03-01T10:43:03.433Z,90
2017-03-01T10:44:13.805Z,75
2017-03-01T10:45:24.547Z,75
2017-03-01T10:46:35.558Z,95
2017-03-01T10:47:45.944Z,110
2017-03-01T10:48:56.714Z,105
2017-03-01T10:50:07.483Z,100
2017-03-01T10:51:17.853Z,80
2017-03-01T10:52:27.670Z,80
2017-03-01T10:53:38.423Z,115
2017-03-01T10:54:49.456Z,115
2017-03-01T10:55:59.832Z,105
2017-03-01T10:57:09.815Z,110
2017-03-01T10:58:20.806Z,120
2017-03-01T10:59:31.183Z,110
2017-03-01T11:00:41.523Z,95
2017-03-01T11:01:51.496Z,100
2017-03-01T11:03:02.249Z,110
2017-03-01T11:04:12.612Z,100
2017-03-01T11:05:22.591Z,115
2017-03-01T11:06:32.959Z,105
2017-03-01T11:07:43.356Z,90
2017-03-01T11:08:53.586Z,110
2017-03-01T11:10:03.968Z,105
2017-03-01T11:11:14.741Z,100
2017-03-01T11:12:25.523Z,85
2017-03-01T11:13:35.904Z,95
2017-03-01T11:14:46.934Z,95
2017-03-01T11:15:56.933Z,85
2017-03-01T11:17:07.330Z,75
2017-03-01T11:18:18.092Z,80
2017-03-01T11:19:28.072Z,80
2017-03-01T11:20:38.291Z,80
2017-03-01T11:21:49.043Z,75
2017-03-01T11:22:59.420Z,85
2017-03-01T11:24:09.791Z,90
2017-03-01T11:25:20.175Z,95
2017-03-01T11:26:30.801Z,70
2017-03-01T11:27:41.560Z,85
2017-03-01T11:28:51.943Z,75
2017-03-01T11:30:02.738Z,70
2017-03-01T11:31:13.499Z,85
2017-03-01T11:32:24.520Z,55
2017-03-01T11:33:34.905Z,55
2017-03-01T11:34:44.868Z,45
2017-03-01T11:35:55.222Z,55
2017-03-01T11:37:05.595Z,35
2017-03-01T11:38:15.824Z,25
2017-03-01T11:39:26.629Z,30
2017-03-01T11:40:37.011Z,30
2017-03-01T11:41:47.352Z,35
2017-03-01T11:42:57.724Z,45
2017-03-01T11:44:08.402Z,50
2017-03-01T11:45:18.779Z,30
2017-03-01T11:46:29.525Z,25
2017-03-01T11:47:39.877Z,20
2017-03-01T11:48:50.617Z,30
2017-03-01T11:50:00.926Z,25
2017-03-01T11:51:11.678Z,35
2017-03-01T11:52:22.052Z,40
2017-03-01T11:53:32.424Z,25
2017-03-01T11:54:42.801Z,30
2017-03-01T11:55:53.439Z,45
2017-03-01T11:57:04.091Z,50
2017-03-01T11:58:14.088Z,50
2017-03-01T11:59:24.049Z,45
2017-03-01T12:00:34.019Z,50
2017-03-01T12:01:45.117Z,40
2017-03-01T12:02:55.883Z,40
2017-03-01T12:04:06.662Z,55
2017-03-01T12:05:17.034Z,35
2017-03-01T12:06:27.393Z,35
2017-03-01T12:07:37.994Z,60
2017-03-01T12:08:48.349Z,50
2017-03-01T12:09:59.120Z,50
2017-03-01T12:11:09.921Z,75
2017-03-01T12:12:19.907Z,60
2017-03-01T12:13:29.771Z,65
2017-03-01T12:14:40.554Z,70
2017-03-01T12:15:51.283Z,80
2017-03-01T12:17:01.246Z,80
2017-03-01T12:18:11.642Z,90
2017-03-01T12:19:21.523Z,80
2017-03-01T12:20:32.292Z,75
2017-03-01T12:21:43.060Z,70
2017-03-01T12:22:53.453Z,55
2017-03-01T12:24:04.312Z,55
2017-03-01T12:25:14.979Z,45
2017-03-01T12:26:25.392Z,55
2017-03-01T12:27:36.164Z,85
2017-03-01T12:28:47.002Z,80
2017-03-01T12:29:57.793Z,65
2017-03-01T12:31:08.090Z,95
2017-03-01T12:32:18.055Z,85
2017-03-01T12:33:28.457Z,100
2017-03-01T12:34:39.206Z,105
2017-03-01T12:35:49.955Z,100
2017-03-01T12:37:00.675Z,75
2017-03-01T12:38:10.653Z,70
2017-03-01T12:39:21.430Z,80
2017-03-01T12:40:31.789Z,90
2017-03-01T12:41:42.588Z,90
2017-03-01T12:42:53.613Z,85
2017-03-01T12:44:04.003Z,80
2017-03-01T12:45:14.378Z,60
2017-03-01T12:46:24.749Z,40
2017-03-01T12:47:34.734Z,45
2017-03-01T12:48:45.809Z,40
2017-03-01T12:49:56.570Z,50
2017-03-01T12:51:07.366Z,50
2017-03-01T12:52:18.153Z,45
2017-03-01T12:53:28.141Z,75
2017-03-01T12:54:38.467Z,80
2017-03-01T12:55:48.836Z,75
2017-03-01T12:56:58.829Z,125
2017-03-01T12:58:09.613Z,105
2017-03-01T12:59:19.965Z,95
2017-03-01T13:00:30.583Z,75
2017-03-01T13:01:40.547Z,45
2017-03-01T13:02:51.287Z,45
2017-03-01T13:04:01.664Z,45
2017-03-01T13:05:12.096Z,50
2017-03-01T13:06:22.742Z,45
2017-03-01T13:07:33.131Z,45
2017-03-01T13:08:43.512Z,60
2017-03-01T13:09:53.883Z,40
2017-03-01T13:11:04.659Z,30
2017-03-01T13:12:14.877Z,30
2017-03-01T13:13:25.629Z,35
2017-03-01T13:14:36.400Z,40
2017-03-01T13:15:47.140Z,35
2017-03-01T13:16:57.916Z,50
2017-03-01T13:18:08.590Z,50
2017-03-01T13:19:19.348Z,45
2017-03-01T13:20:29.710Z,45
2017-03-01T13:21:40.074Z,55
2017-03-01T13:22:51.122Z,40
2017-03-01T13:24:02.160Z,45
2017-03-01T13:25:13.146Z,40
2017-03-01T13:26:23.543Z,50
2017-03-01T13:27:33.913Z,50
2017-03-01T13:28:44.272Z,50
2017-03-01T13:29:54.108Z,45
2017-03-01T13:31:04.094Z,45
2017-03-01T13:32:14.862Z,55
2017-03-01T13:33:25.622Z,65
2017-03-01T13:34:35.611Z,60
2017-03-01T13:35:46.267Z,50
2017-03-01T13:36:57.050Z,55
2017-03-01T13:38:07.440Z,40
2017-03-01T13:39:17.437Z,35
2017-03-01T13:40:27.412Z,30
2017-03-01T13:41:37.673Z,30
2017-03-01T13:42:48.448Z,40
2017-03-01T13:43:58.848Z,35
2017-03-01T13:45:09.207Z,35
2017-03-01T13:46:19.570Z,35
2017-03-01T13:47:29.956Z,35
2017-03-01T13:48:40.842Z,35
2017-03-01T13:49:50.793Z,45
2017-03-01T13:51:00.746Z,55
2017-03-01T13:52:11.785Z,70
2017-03-01T13:53:22.174Z,75
2017-03-01T13:54:32.963Z,80
2017-03-01T13:55:42.937Z,85
2017-03-01T13:56:53.319Z,75
2017-03-01T13:58:03.949Z,65
2017-03-01T13:59:13.964Z,80
2017-03-01T14:00:24.352Z,80
2017-03-01T14:01:34.706Z,80
2017-03-01T14:02:45.107Z,80
2017-03-01T14:03:55.751Z,65
2017-03-01T14:05:06.142Z,60
2017-03-01T14:06:16.505Z,70
2017-03-01T14:07:26.496Z,70
2017-03-01T14:08:36.484Z,75
2017-03-01T14:09:46.745Z,75
2017-03-01T14:10:57.510Z,65
2017-03-01T14:12:07.068Z,55
2017-03-01T14:13:17.465Z,50
2017-03-01T14:14:27.455Z,40
2017-03-01T14:15:38.174Z,40
2017-03-01T14:16:48.546Z,40
2017-03-01T14:17:58.961Z,40
2017-03-01T14:19:09.312Z,40
2017-03-01T14:20:20.114Z,40
2017-03-01T14:21:29.543Z,35
2017-03-01T14:22:39.931Z,40
2017-03-01T14:23:50.712Z,20
2017-03-01T14:25:01.071Z,10
2017-03-01T14:26:11.047Z,10
2017-03-01T14:27:21.328Z,10
2017-03-01T14:28:32.086Z,15
2017-03-01T14:29:42.050Z,15
2017-03-01T14:30:52.440Z,15
2017-03-01T14:32:03.227Z,30
2017-03-01T14:33:13.892Z,35
2017-03-01T14:34:23.508Z,45
2017-03-01T14:35:34.263Z,35
2017-03-01T14:36:45.009Z,30
2017-03-01T14:37:55.390Z,40
2017-03-01T14:39:06.069Z,45
2017-03-01T14:40:16.418Z,55
2017-03-01T14:41:27.234Z,50
2017-03-01T14:42:37.983Z,30
2017-03-01T14:43:48.331Z,20
2017-03-01T14:44:58.968Z,20
2017-03-01T14:46:08.937Z,20
2017-03-01T14:47:18.908Z,15
2017-03-01T14:48:29.663Z,25
2017-03-01T14:49:40.412Z,20
2017-03-01T14:50:51.426Z,25
2017-03-01T14:52:01.797Z,35
2017-03-01T14:53:12.172Z,45
2017-03-01T14:54:22.943Z,35
2017-03-01T14:55:33.314Z,35
2017-03-01T14:56:43.603Z,30
2017-03-01T14:57:53.589Z,35
2017-03-01T14:59:04.368Z,30
2017-03-01T15:00:14.773Z,30
2017-03-01T15:01:25.135Z,15
2017-03-01T15:02:34.616Z,15
2017-03-01T15:03:44.986Z,15
2017-03-01T15:04:55.805Z,20
2017-03-01T15:06:06.593Z,15
2017-03-01T15:07:16.561Z,15
2017-03-01T15:08:27.628Z,10
2017-03-01T15:09:38.389Z,10
2017-03-01T15:10:47.981Z,10
2017-03-01T15:11:58.354Z,10
2017-03-01T15:13:09.116Z,20
2017-03-01T15:14:19.747Z,30
2017-03-01T15:15:30.126Z,30
2017-03-01T15:16:40.125Z,20
2017-03-01T15:17:50.886Z,15
2017-03-01T15:19:01.649Z,20
2017-03-01T15:20:12.288Z,15
2017-03-01T15:21:22.658Z,10
2017-03-01T15:22:33.418Z,5
2017-03-01T15:23:43.003Z,5
2017-03-01T15:24:53.792Z,10
2017-03-01T15:26:04.823Z,25
2017-03-01T15:27:15.223Z,30
2017-03-01T15:28:25.598Z,30
2017-03-01T15:29:35.589Z,30
2017-03-01T15:30:45.959Z,25
2017-03-01T15:31:56.970Z,25
2017-03-01T15:33:07.345Z,25
2017-03-01T15:34:17.732Z,25
2017-03-01T15:35:28.494Z,25
2017-03-01T15:36:38.474Z,25
2017-03-01T15:37:48.680Z,25
2017-03-01T15:38:59.073Z,25
2017-03-01T15:40:08.641Z,15
2017-03-01T15:41:19.432Z,15
2017-03-01T15:42:30.447Z,15
2017-03-01T15:43:41.102Z,15
2017-03-01T15:44:51.886Z,20
2017-03-01T15:46:02.254Z,20
2017-03-01T15:47:12.650Z,15
2017-03-01T15:48:23.408Z,10
2017-03-01T15:49:34.424Z,20
2017-03-01T15:50:44.813Z,20
2017-03-01T15:51:55.621Z,20
2017-03-01T15:53:05.973Z,15
2017-03-01T15:54:16.347Z,10
2017-03-01T15:55:26.571Z,10
2017-03-01T15:56:36.923Z,10
2017-03-01T15:57:46.501Z,5
2017-03-01T15:58:56.889Z,5
2017-03-01T16:00:07.254Z,5
2017-03-01T16:01:17.919Z,5
2017-03-01T16:02:28.296Z,0
2017-03-01T16:03:38.680Z,0
2017-03-01T16:04:48.632Z,0
2017-03-01T16:05:58.997Z,0
2017-03-01T16:07:09.621Z,0
2017-03-01T16:08:19.973Z,0
2017-03-01T16:09:30.328Z,0
2017-03-01T16:10:41.089Z,0
2017-03-01T16:11:51.056Z,0
2017-03-01T16:13:01.267Z,0
2017-03-01T16:14:11.627Z,0
2017-03-01T16:15:21.567Z,5
2017-03-01T16:16:31.918Z,10
2017-03-01T16:17:41.897Z,10
2017-03-01T16:18:52.098Z,10
2017-03-01T16:20:02.105Z,10
2017-03-01T16:21:12.061Z,10
2017-03-01T16:22:22.018Z,10
2017-03-01T16:23:32.361Z,5
2017-03-01T16:24:43.447Z,5
2017-03-01T16:25:54.215Z,5
2017-03-01T16:27:04.181Z,5
2017-03-01T16:28:14.538Z,5
2017-03-01T16:29:24.899Z,5
2017-03-01T16:30:35.970Z,5
2017-03-01T16:31:46.309Z,5
2017-03-01T16:32:55.497Z,5
2017-03-01T16:34:05.075Z,5
2017-03-01T16:35:15.050Z,5
2017-03-01T16:36:25.295Z,5
2017-03-01T16:37:36.050Z,5
2017-03-01T16:38:46.403Z,0
2017-03-01T16:39:56.768Z,0
2017-03-01T16:41:07.529Z,0
2017-03-01T16:42:18.594Z,0
2017-03-01T16:43:29.369Z,0
2017-03-01T16:44:39.745Z,0
2017-03-01T16:45:49.319Z,0
2017-03-01T16:46:59.246Z,0
2017-03-01T16:48:09.818Z,0
2017-03-01T16:49:19.783Z,0
2017-03-01T16:50:30.516Z,0
2017-03-01T16:51:40.826Z,0
2017-03-01T16:52:51.161Z,0
2017-03-01T16:54:01.756Z,0
2017-03-01T16:55:12.169Z,0
2017-03-01T16:56:22.571Z,0
2017-03-01T16:57:33.310Z,0
2017-03-01T16:58:44.076Z,0
2017-03-01T16:59:54.685Z,0